Tessa Pg — MJBU6 — position and weather

sailwx.info

Track history (hours):
 
Tides and Currents Weather Stations Pressure Air Temp Water Temp Dewpoint Dewpoint Depression Visibility Wind Speed Wind Dir Waves Ship Positions

Tessa Pg

Last reported at 2017-Nov-17 17:42 UTC. Time now 2017-Nov-18 08:35 UTC.
Position N 14°34' W 061°05'.

Length 122 m; draft 5.2 m.

Type: Tanker. MMSI: 235009020.

Date/timePositionNaut miles runAvg speedWind from/ knotsBaromVisibWave heightAir tempDewpointWater temp
2017-Nov-17 17:42N 14°34' W 061°05'0 0.0
2017-Nov-17 16:51N 14°34' W 061°05'0 0.0
2017-Nov-17 16:27N 14°34' W 061°05'0 0.1
2017-Nov-17 15:09N 14°34' W 061°05'0 0.0
2017-Nov-17 14:51N 14°34' W 061°05'0 0.1
2017-Nov-17 14:12N 14°34' W 061°05'3 0.2
2017-Nov-16 21:48N 14°35' W 061°02'2 6.5
2017-Nov-16 21:30N 14°34' W 061°04'1 2.8
2017-Nov-16 21:00N 14°34' W 061°05'0 0.0
2017-Nov-16 17:59N 14°34' W 061°05'0 0.0
2017-Nov-16 17:26N 14°34' W 061°05'0 0.0
2017-Nov-16 16:44N 14°34' W 061°05'0 0.0
2017-Nov-16 16:20N 14°34' W 061°05'0 0.1
2017-Nov-16 15:59N 14°34' W 061°05'0 0.0
2017-Nov-16 15:11N 14°34' W 061°05'0 0.0
2017-Nov-16 14:59N 14°34' W 061°05'0 0.0
2017-Nov-16 14:23N 14°34' W 061°05'0 0.0
2017-Nov-16 11:08N 14°34' W 061°05'0 0.0
2017-Nov-16 10:47N 14°34' W 061°05'0 0.0
2017-Nov-16 10:29N 14°34' W 061°05'0 0.0
2017-Nov-16 09:56N 14°34' W 061°05'0 0.0
2017-Nov-16 09:29N 14°34' W 061°05'0 0.0
2017-Nov-16 08:56N 14°34' W 061°05'0 0.0
2017-Nov-16 07:41N 14°34' W 061°05'0 0.0
2017-Nov-16 07:29N 14°34' W 061°05'0 0.0
2017-Nov-16 05:05N 14°34' W 061°05'0 0.1
2017-Nov-16 03:44N 14°34' W 061°05'0 0.0
2017-Nov-16 03:23N 14°34' W 061°05'0 0.0
2017-Nov-16 02:56N 14°34' W 061°05'0 0.0
2017-Nov-16 00:17N 14°34' W 061°05'0 0.0
2017-Nov-15 16:53N 14°34' W 061°05'0 0.0
2017-Nov-15 16:29N 14°34' W 061°05'0 0.0
2017-Nov-15 13:14N 14°34' W 061°05'0 0.0
2017-Nov-15 12:47N 14°34' W 061°05'0 0.0
2017-Nov-15 12:20N 14°34' W 061°05'0 0.0
2017-Nov-15 07:47N 14°34' W 061°05'0 0.0
2017-Nov-15 06:05N 14°34' W 061°05'0 0.0
2017-Nov-15 05:41N 14°34' W 061°05'0 0.0
2017-Nov-15 03:59N 14°34' W 061°05'0 0.0
2017-Nov-15 03:20N 14°34' W 061°05'0 0.0
2017-Nov-15 02:11N 14°34' W 061°05'0 0.1
2017-Nov-15 01:50N 14°34' W 061°05'0 0.0
2017-Nov-15 01:29N 14°34' W 061°05'0 0.0
2017-Nov-14 11:11N 14°34' W 061°05'0 0.0
2017-Nov-14 10:59N 14°34' W 061°05'0 0.0
2017-Nov-14 05:20N 14°34' W 061°05'0 0.0
2017-Nov-14 01:56N 14°34' W 061°05'0 0.0
2017-Nov-14 00:14N 14°34' W 061°05'0 0.0
2017-Nov-13 22:53N 14°34' W 061°05'0 0.0
2017-Nov-12 17:33N 14°34' W 061°05'0 2.1
2017-Nov-12 17:21N 14°34' W 061°05'2 5.5
2017-Nov-12 17:00N 14°36' W 061°04'0 0.0
2017-Nov-12 11:29N 14°36' W 061°04'1 2.7
2017-Nov-12 11:00N 14°35' W 061°05'5 9.2
2017-Nov-12 10:29N 14°36' W 061°10'611.2
2017-Nov-12 09:59N 14°39' W 061°15'117 9.8
2017-Nov-11 22:01N 16°21' W 062°14'0 7.3
2017-Nov-11 22:00N 16°21' W 062°15'611.2
2017-Nov-11 21:30N 16°26' W 062°18'611.4
2017-Nov-11 21:00N 16°31' W 062°21'611.3
2017-Nov-11 20:30N 16°35' W 062°24'611.3
2017-Nov-11 20:00N 16°40' W 062°27'611.2
2017-Nov-11 19:30N 16°45' W 062°31'43 3.9
2017-Nov-11 08:24N 17°09' W 061°53'1 2.2
2017-Nov-11 07:58N 17°09' W 061°52'0 0.0
2017-Nov-11 07:28N 17°09' W 061°52'0 0.0
2017-Nov-11 06:58N 17°09' W 061°52'0 0.0
2017-Nov-11 06:28N 17°09' W 061°52'0 0.0
2017-Nov-11 05:58N 17°09' W 061°52'0 0.0
2017-Nov-11 05:28N 17°09' W 061°52'0 0.0
2017-Nov-11 04:58N 17°09' W 061°52'0 0.0
2017-Nov-11 04:28N 17°09' W 061°52'0 0.0
2017-Nov-11 03:58N 17°09' W 061°52'0 0.0
2017-Nov-11 03:28N 17°09' W 061°52'0 0.0
2017-Nov-11 02:58N 17°09' W 061°52'0 0.0
2017-Nov-11 02:28N 17°09' W 061°52'0 0.0
2017-Nov-11 01:58N 17°09' W 061°52'0 0.0
2017-Nov-11 01:28N 17°09' W 061°52'0 0.0
2017-Nov-11 00:58N 17°09' W 061°52'0 0.0
2017-Nov-11 00:28N 17°09' W 061°52'0 0.0
2017-Nov-10 23:58N 17°09' W 061°52'0 0.0
2017-Nov-10 23:28N 17°09' W 061°52'0 0.0
2017-Nov-10 22:58N 17°09' W 061°52'0 0.0
2017-Nov-10 22:28N 17°09' W 061°52'0 0.0
2017-Nov-10 21:58N 17°09' W 061°52'0 0.0
2017-Nov-10 21:28N 17°09' W 061°52'0 0.0
2017-Nov-10 20:58N 17°09' W 061°52'0 0.0
2017-Nov-10 20:28N 17°09' W 061°52'0 0.0
2017-Nov-10 19:58N 17°09' W 061°52'0 0.0
2017-Nov-10 19:28N 17°09' W 061°52'0 0.0
2017-Nov-10 18:58N 17°09' W 061°52'0 0.0
2017-Nov-10 18:28N 17°09' W 061°52'0 0.0
2017-Nov-10 17:58N 17°09' W 061°52'0 0.0
2017-Nov-10 17:28N 17°09' W 061°52'0 0.0
2017-Nov-10 16:58N 17°09' W 061°52'1 1.6
2017-Nov-10 16:31N 17°09' W 061°53'1 1.6
2017-Nov-10 15:59N 17°09' W 061°53'0 0.0
2017-Nov-10 15:29N 17°09' W 061°53'0 0.0
2017-Nov-10 14:59N 17°09' W 061°53'0 0.0
2017-Nov-10 14:29N 17°09' W 061°53'0 0.0
2017-Nov-10 13:59N 17°09' W 061°53'0 0.0
2017-Nov-10 13:29N 17°09' W 061°53'0 0.0
2017-Nov-10 12:59N 17°09' W 061°53'0 0.7
2017-Nov-10 12:31N 17°09' W 061°54'1 1.5
2017-Nov-10 12:00N 17°08' W 061°53'0 0.0
2017-Nov-10 11:30N 17°08' W 061°53'0 0.0
2017-Nov-10 11:00N 17°08' W 061°53'0 0.0
2017-Nov-10 10:24N 17°08' W 061°53'0 0.1
2017-Nov-10 10:00N 17°08' W 061°53'0 0.0
2017-Nov-10 09:30N 17°08' W 061°53'0 0.0
2017-Nov-10 09:00N 17°08' W 061°53'0 0.0
2017-Nov-10 08:30N 17°08' W 061°53'0 0.0
2017-Nov-10 08:00N 17°08' W 061°53'0 0.0
2017-Nov-10 07:30N 17°08' W 061°53'0 0.0
2017-Nov-10 07:00N 17°08' W 061°53'0 0.0
2017-Nov-10 06:30N 17°08' W 061°53'0 0.0
2017-Nov-10 06:00N 17°08' W 061°53'0 0.0
2017-Nov-10 05:30N 17°08' W 061°53'0 0.0
2017-Nov-10 05:00N 17°08' W 061°53'0 0.0
2017-Nov-10 04:30N 17°08' W 061°53'0 0.0
2017-Nov-10 04:00N 17°08' W 061°53'0 0.0
2017-Nov-10 03:30N 17°08' W 061°53'0 0.0
2017-Nov-10 03:00N 17°08' W 061°53'0 0.0
2017-Nov-10 02:30N 17°08' W 061°53'0 0.0
2017-Nov-10 02:00N 17°08' W 061°53'0 0.0
2017-Nov-10 01:30N 17°08' W 061°53'0 0.0
2017-Nov-10 01:00N 17°08' W 061°53'0 0.0
2017-Nov-10 00:30N 17°08' W 061°53'0 0.0
2017-Nov-10 00:00N 17°08' W 061°53'0 0.0
2017-Nov-09 23:30N 17°08' W 061°53'0 0.0
2017-Nov-09 23:00N 17°08' W 061°53'0 0.0
2017-Nov-09 22:30N 17°08' W 061°53'0 0.0
2017-Nov-09 22:00N 17°08' W 061°53'0 0.0
2017-Nov-09 21:30N 17°08' W 061°53'0 0.0
2017-Nov-09 21:00N 17°08' W 061°53'0 0.0
2017-Nov-09 20:30N 17°08' W 061°53'0 0.0
2017-Nov-09 20:00N 17°08' W 061°53'0 0.0
2017-Nov-09 19:30N 17°08' W 061°53'0 0.0
2017-Nov-09 19:00N 17°08' W 061°53'0 0.0
2017-Nov-09 18:30N 17°08' W 061°53'0 0.0
2017-Nov-09 18:00N 17°08' W 061°53'0 0.0
2017-Nov-09 17:30N 17°08' W 061°53'0 0.0
2017-Nov-09 17:00N 17°08' W 061°53'0 0.0
2017-Nov-09 16:30N 17°08' W 061°53'0 0.1
2017-Nov-09 16:00N 17°08' W 061°53'3 5.2
2017-Nov-09 15:30N 17°09' W 061°56'510.9
2017-Nov-09 15:00N 17°04' W 061°58'612.2
2017-Nov-09 14:30N 16°58' W 061°58'612.0
2017-Nov-09 14:00N 16°52' W 061°58'611.7
2017-Nov-09 13:30N 16°46' W 061°58'611.6
2017-Nov-09 13:00N 16°40' W 061°59'611.6
2017-Nov-09 12:30N 16°34' W 061°59'611.7
2017-Nov-09 12:00N 16°28' W 061°60'611.8
2017-Nov-09 11:30N 16°23' W 062°00'611.6
2017-Nov-09 11:00N 16°17' W 061°60'612.1
2017-Nov-09 10:30N 16°11' W 061°60'3512.2
2017-Nov-09 07:39N 15°38' W 061°47'1012.5
2017-Nov-09 06:49N 15°29' W 061°42'412.4
2017-Nov-09 06:30N 15°25' W 061°41'712.4
2017-Nov-09 05:59N 15°19' W 061°37'5112.4
2017-Nov-09 01:52N 14°37' W 061°09'411.6
2017-Nov-09 01:30N 14°35' W 061°05'1 2.3
2017-Nov-09 01:00N 14°36' W 061°04'0 0.0
2017-Nov-08 20:24N 14°36' W 061°04'0 0.1
2017-Nov-08 20:00N 14°36' W 061°04'2 3.6
2017-Nov-08 19:30N 14°36' W 061°06'3 5.3
2017-Nov-08 19:00N 14°36' W 061°08'4510.2
2017-Nov-08 14:38N 15°12' W 061°36'3 9.2
2017-Nov-08 14:20N 15°14' W 061°38'3 9.5
2017-Nov-08 13:58N 15°17' W 061°40'6710.6
2017-Nov-08 07:35N 16°14' W 062°18'212.4
2017-Nov-08 07:28N 16°15' W 062°19'612.2
2017-Nov-08 07:00N 16°19' W 062°22'612.0
2017-Nov-08 06:30N 16°25' W 062°25'612.3
2017-Nov-08 06:00N 16°30' W 062°28'612.0
2017-Nov-08 05:30N 16°35' W 062°32'612.6
2017-Nov-08 05:00N 16°40' W 062°35'  
Track history (hours):
 
Tides and Currents Weather Stations Pressure Air Temp Water Temp Dewpoint Dewpoint Depression Visibility Wind Speed Wind Dir Waves Ship Positions

Tessa Pg

Last reported at 2017-Nov-17 17:42 UTC. Time now 2017-Nov-18 08:35 UTC.
Position N 14°34' W 061°05'.

Length 122 m; draft 5.2 m.

Type: Tanker. MMSI: 235009020.

Date/timePositionNaut miles runAvg speedWind from/ knotsBaromVisibWave heightAir tempDewpointWater temp
2017-Nov-17 17:42N 14°34' W 061°05'0 0.0
2017-Nov-17 16:51N 14°34' W 061°05'0 0.0
2017-Nov-17 16:27N 14°34' W 061°05'0 0.1
2017-Nov-17 15:09N 14°34' W 061°05'0 0.0
2017-Nov-17 14:51N 14°34' W 061°05'0 0.1
2017-Nov-17 14:12N 14°34' W 061°05'3 0.2
2017-Nov-16 21:48N 14°35' W 061°02'2 6.5
2017-Nov-16 21:30N 14°34' W 061°04'1 2.8
2017-Nov-16 21:00N 14°34' W 061°05'0 0.0
2017-Nov-16 17:59N 14°34' W 061°05'0 0.0
2017-Nov-16 17:26N 14°34' W 061°05'0 0.0
2017-Nov-16 16:44N 14°34' W 061°05'0 0.0
2017-Nov-16 16:20N 14°34' W 061°05'0 0.1
2017-Nov-16 15:59N 14°34' W 061°05'0 0.0
2017-Nov-16 15:11N 14°34' W 061°05'0 0.0
2017-Nov-16 14:59N 14°34' W 061°05'0 0.0
2017-Nov-16 14:23N 14°34' W 061°05'0 0.0
2017-Nov-16 11:08N 14°34' W 061°05'0 0.0
2017-Nov-16 10:47N 14°34' W 061°05'0 0.0
2017-Nov-16 10:29N 14°34' W 061°05'0 0.0
2017-Nov-16 09:56N 14°34' W 061°05'0 0.0
2017-Nov-16 09:29N 14°34' W 061°05'0 0.0
2017-Nov-16 08:56N 14°34' W 061°05'0 0.0
2017-Nov-16 07:41N 14°34' W 061°05'0 0.0
2017-Nov-16 07:29N 14°34' W 061°05'0 0.0
2017-Nov-16 05:05N 14°34' W 061°05'0 0.1
2017-Nov-16 03:44N 14°34' W 061°05'0 0.0
2017-Nov-16 03:23N 14°34' W 061°05'0 0.0
2017-Nov-16 02:56N 14°34' W 061°05'0 0.0
2017-Nov-16 00:17N 14°34' W 061°05'0 0.0
2017-Nov-15 16:53N 14°34' W 061°05'0 0.0
2017-Nov-15 16:29N 14°34' W 061°05'0 0.0
2017-Nov-15 13:14N 14°34' W 061°05'0 0.0
2017-Nov-15 12:47N 14°34' W 061°05'0 0.0
2017-Nov-15 12:20N 14°34' W 061°05'0 0.0
2017-Nov-15 07:47N 14°34' W 061°05'0 0.0
2017-Nov-15 06:05N 14°34' W 061°05'0 0.0
2017-Nov-15 05:41N 14°34' W 061°05'0 0.0
2017-Nov-15 03:59N 14°34' W 061°05'0 0.0
2017-Nov-15 03:20N 14°34' W 061°05'0 0.0
2017-Nov-15 02:11N 14°34' W 061°05'0 0.1
2017-Nov-15 01:50N 14°34' W 061°05'0 0.0
2017-Nov-15 01:29N 14°34' W 061°05'0 0.0
2017-Nov-14 11:11N 14°34' W 061°05'0 0.0
2017-Nov-14 10:59N 14°34' W 061°05'0 0.0
2017-Nov-14 05:20N 14°34' W 061°05'0 0.0
2017-Nov-14 01:56N 14°34' W 061°05'0 0.0
2017-Nov-14 00:14N 14°34' W 061°05'0 0.0
2017-Nov-13 22:53N 14°34' W 061°05'0 0.0
2017-Nov-12 17:33N 14°34' W 061°05'0 2.1
2017-Nov-12 17:21N 14°34' W 061°05'2 5.5
2017-Nov-12 17:00N 14°36' W 061°04'0 0.0
2017-Nov-12 11:29N 14°36' W 061°04'1 2.7
2017-Nov-12 11:00N 14°35' W 061°05'5 9.2
2017-Nov-12 10:29N 14°36' W 061°10'611.2
2017-Nov-12 09:59N 14°39' W 061°15'117 9.8
2017-Nov-11 22:01N 16°21' W 062°14'0 7.3
2017-Nov-11 22:00N 16°21' W 062°15'611.2
2017-Nov-11 21:30N 16°26' W 062°18'611.4
2017-Nov-11 21:00N 16°31' W 062°21'611.3
2017-Nov-11 20:30N 16°35' W 062°24'611.3
2017-Nov-11 20:00N 16°40' W 062°27'611.2
2017-Nov-11 19:30N 16°45' W 062°31'43 3.9
2017-Nov-11 08:24N 17°09' W 061°53'1 2.2
2017-Nov-11 07:58N 17°09' W 061°52'0 0.0
2017-Nov-11 07:28N 17°09' W 061°52'0 0.0
2017-Nov-11 06:58N 17°09' W 061°52'0 0.0
2017-Nov-11 06:28N 17°09' W 061°52'0 0.0
2017-Nov-11 05:58N 17°09' W 061°52'0 0.0
2017-Nov-11 05:28N 17°09' W 061°52'0 0.0
2017-Nov-11 04:58N 17°09' W 061°52'0 0.0
2017-Nov-11 04:28N 17°09' W 061°52'0 0.0
2017-Nov-11 03:58N 17°09' W 061°52'0 0.0
2017-Nov-11 03:28N 17°09' W 061°52'0 0.0
2017-Nov-11 02:58N 17°09' W 061°52'0 0.0
2017-Nov-11 02:28N 17°09' W 061°52'0 0.0
2017-Nov-11 01:58N 17°09' W 061°52'0 0.0
2017-Nov-11 01:28N 17°09' W 061°52'0 0.0
2017-Nov-11 00:58N 17°09' W 061°52'0 0.0
2017-Nov-11 00:28N 17°09' W 061°52'0 0.0
2017-Nov-10 23:58N 17°09' W 061°52'0 0.0
2017-Nov-10 23:28N 17°09' W 061°52'0 0.0
2017-Nov-10 22:58N 17°09' W 061°52'0 0.0
2017-Nov-10 22:28N 17°09' W 061°52'0 0.0
2017-Nov-10 21:58N 17°09' W 061°52'0 0.0
2017-Nov-10 21:28N 17°09' W 061°52'0 0.0
2017-Nov-10 20:58N 17°09' W 061°52'0 0.0
2017-Nov-10 20:28N 17°09' W 061°52'0 0.0
2017-Nov-10 19:58N 17°09' W 061°52'0 0.0
2017-Nov-10 19:28N 17°09' W 061°52'0 0.0
2017-Nov-10 18:58N 17°09' W 061°52'0 0.0
2017-Nov-10 18:28N 17°09' W 061°52'0 0.0
2017-Nov-10 17:58N 17°09' W 061°52'0 0.0
2017-Nov-10 17:28N 17°09' W 061°52'0 0.0
2017-Nov-10 16:58N 17°09' W 061°52'1 1.6
2017-Nov-10 16:31N 17°09' W 061°53'1 1.6
2017-Nov-10 15:59N 17°09' W 061°53'0 0.0
2017-Nov-10 15:29N 17°09' W 061°53'0 0.0
2017-Nov-10 14:59N 17°09' W 061°53'0 0.0
2017-Nov-10 14:29N 17°09' W 061°53'0 0.0
2017-Nov-10 13:59N 17°09' W 061°53'0 0.0
2017-Nov-10 13:29N 17°09' W 061°53'0 0.0
2017-Nov-10 12:59N 17°09' W 061°53'0 0.7
2017-Nov-10 12:31N 17°09' W 061°54'1 1.5
2017-Nov-10 12:00N 17°08' W 061°53'0 0.0
2017-Nov-10 11:30N 17°08' W 061°53'0 0.0
2017-Nov-10 11:00N 17°08' W 061°53'0 0.0
2017-Nov-10 10:24N 17°08' W 061°53'0 0.1
2017-Nov-10 10:00N 17°08' W 061°53'0 0.0
2017-Nov-10 09:30N 17°08' W 061°53'0 0.0
2017-Nov-10 09:00N 17°08' W 061°53'0 0.0
2017-Nov-10 08:30N 17°08' W 061°53'0 0.0
2017-Nov-10 08:00N 17°08' W 061°53'0 0.0
2017-Nov-10 07:30N 17°08' W 061°53'0 0.0
2017-Nov-10 07:00N 17°08' W 061°53'0 0.0
2017-Nov-10 06:30N 17°08' W 061°53'0 0.0
2017-Nov-10 06:00N 17°08' W 061°53'0 0.0
2017-Nov-10 05:30N 17°08' W 061°53'0 0.0
2017-Nov-10 05:00N 17°08' W 061°53'0 0.0
2017-Nov-10 04:30N 17°08' W 061°53'0 0.0
2017-Nov-10 04:00N 17°08' W 061°53'0 0.0
2017-Nov-10 03:30N 17°08' W 061°53'0 0.0
2017-Nov-10 03:00N 17°08' W 061°53'0 0.0
2017-Nov-10 02:30N 17°08' W 061°53'0 0.0
2017-Nov-10 02:00N 17°08' W 061°53'0 0.0
2017-Nov-10 01:30N 17°08' W 061°53'0 0.0
2017-Nov-10 01:00N 17°08' W 061°53'0 0.0
2017-Nov-10 00:30N 17°08' W 061°53'0 0.0
2017-Nov-10 00:00N 17°08' W 061°53'0 0.0
2017-Nov-09 23:30N 17°08' W 061°53'0 0.0
2017-Nov-09 23:00N 17°08' W 061°53'0 0.0
2017-Nov-09 22:30N 17°08' W 061°53'0 0.0
2017-Nov-09 22:00N 17°08' W 061°53'0 0.0
2017-Nov-09 21:30N 17°08' W 061°53'0 0.0
2017-Nov-09 21:00N 17°08' W 061°53'0 0.0
2017-Nov-09 20:30N 17°08' W 061°53'0 0.0
2017-Nov-09 20:00N 17°08' W 061°53'0 0.0
2017-Nov-09 19:30N 17°08' W 061°53'0 0.0
2017-Nov-09 19:00N 17°08' W 061°53'0 0.0
2017-Nov-09 18:30N 17°08' W 061°53'0 0.0
2017-Nov-09 18:00N 17°08' W 061°53'0 0.0
2017-Nov-09 17:30N 17°08' W 061°53'0 0.0
2017-Nov-09 17:00N 17°08' W 061°53'0 0.0
2017-Nov-09 16:30N 17°08' W 061°53'0 0.1
2017-Nov-09 16:00N 17°08' W 061°53'3 5.2
2017-Nov-09 15:30N 17°09' W 061°56'510.9
2017-Nov-09 15:00N 17°04' W 061°58'612.2
2017-Nov-09 14:30N 16°58' W 061°58'612.0
2017-Nov-09 14:00N 16°52' W 061°58'611.7
2017-Nov-09 13:30N 16°46' W 061°58'611.6
2017-Nov-09 13:00N 16°40' W 061°59'611.6
2017-Nov-09 12:30N 16°34' W 061°59'611.7
2017-Nov-09 12:00N 16°28' W 061°60'611.8
2017-Nov-09 11:30N 16°23' W 062°00'611.6
2017-Nov-09 11:00N 16°17' W 061°60'612.1
2017-Nov-09 10:30N 16°11' W 061°60'3512.2
2017-Nov-09 07:39N 15°38' W 061°47'1012.5
2017-Nov-09 06:49N 15°29' W 061°42'412.4
2017-Nov-09 06:30N 15°25' W 061°41'712.4
2017-Nov-09 05:59N 15°19' W 061°37'5112.4
2017-Nov-09 01:52N 14°37' W 061°09'411.6
2017-Nov-09 01:30N 14°35' W 061°05'1 2.3
2017-Nov-09 01:00N 14°36' W 061°04'0 0.0
2017-Nov-08 20:24N 14°36' W 061°04'0 0.1
2017-Nov-08 20:00N 14°36' W 061°04'2 3.6
2017-Nov-08 19:30N 14°36' W 061°06'3 5.3
2017-Nov-08 19:00N 14°36' W 061°08'4510.2
2017-Nov-08 14:38N 15°12' W 061°36'3 9.2
2017-Nov-08 14:20N 15°14' W 061°38'3 9.5
2017-Nov-08 13:58N 15°17' W 061°40'6710.6
2017-Nov-08 07:35N 16°14' W 062°18'212.4
2017-Nov-08 07:28N 16°15' W 062°19'612.2
2017-Nov-08 07:00N 16°19' W 062°22'612.0
2017-Nov-08 06:30N 16°25' W 062°25'612.3
2017-Nov-08 06:00N 16°30' W 062°28'612.0
2017-Nov-08 05:30N 16°35' W 062°32'612.6
2017-Nov-08 05:00N 16°40' W 062°35'  

Dump ship's entire track history